sensor_id;sensor_type;location;lat;lon;timestamp;pressure;altitude;pressure_sealevel;temperature;humidity
36062;BME280;22123;52.412;20.970;2023-04-16T00:01:36;100585.13;;;7.46;100.00
36062;BME280;22123;52.412;20.970;2023-04-16T00:04:02;100577.38;;;7.43;100.00
36062;BME280;22123;52.412;20.970;2023-04-16T00:06:28;100580.34;;;7.40;100.00
36062;BME280;22123;52.412;20.970;2023-04-16T00:08:53;100577.25;;;7.44;100.00
36062;BME280;22123;52.412;20.970;2023-04-16T00:11:19;100601.84;;;7.58;100.00
36062;BME280;22123;52.412;20.970;2023-04-16T00:13:45;100597.78;;;7.54;100.00
36062;BME280;22123;52.412;20.970;2023-04-16T00:16:11;100595.78;;;7.56;100.00
36062;BME280;22123;52.412;20.970;2023-04-16T00:18:37;100602.16;;;7.55;100.00
36062;BME280;22123;52.412;20.970;2023-04-16T00:21:03;100580.47;;;7.48;100.00
36062;BME280;22123;52.412;20.970;2023-04-16T00:23:29;100580.31;;;7.49;100.00
36062;BME280;22123;52.412;20.970;2023-04-16T00:25:54;100592.16;;;7.47;100.00
36062;BME280;22123;52.412;20.970;2023-04-16T00:28:20;100582.31;;;7.47;100.00
36062;BME280;22123;52.412;20.970;2023-04-16T00:30:46;100583.44;;;7.45;100.00
36062;BME280;22123;52.412;20.970;2023-04-16T00:33:12;100575.00;;;7.40;100.00
36062;BME280;22123;52.412;20.970;2023-04-16T00:35:38;100568.25;;;7.36;100.00
36062;BME280;22123;52.412;20.970;2023-04-16T00:38:04;100562.66;;;7.29;100.00
36062;BME280;22123;52.412;20.970;2023-04-16T00:40:30;100592.16;;;7.47;100.00
36062;BME280;22123;52.412;20.970;2023-04-16T00:42:56;100598.53;;;7.46;100.00
36062;BME280;22123;52.412;20.970;2023-04-16T00:45:22;100606.41;;;7.47;100.00
36062;BME280;22123;52.412;20.970;2023-04-16T00:47:48;100585.19;;;7.36;100.00
36062;BME280;22123;52.412;20.970;2023-04-16T00:50:14;100582.50;;;7.36;100.00
36062;BME280;22123;52.412;20.970;2023-04-16T00:52:40;100547.53;;;7.10;100.00
36062;BME280;22123;52.412;20.970;2023-04-16T00:55:06;100565.94;;;7.23;100.00
36062;BME280;22123;52.412;20.970;2023-04-16T00:57:32;100593.66;;;7.31;100.00
36062;BME280;22123;52.412;20.970;2023-04-16T00:59:58;100608.31;;;7.37;100.00
36062;BME280;22123;52.412;20.970;2023-04-16T01:02:24;100583.81;;;7.22;100.00
36062;BME280;22123;52.412;20.970;2023-04-16T01:04:50;100595.41;;;7.23;100.00
36062;BME280;22123;52.412;20.970;2023-04-16T01:07:16;100602.13;;;7.27;100.00
36062;BME280;22123;52.412;20.970;2023-04-16T01:09:42;100585.69;;;7.12;100.00
36062;BME280;22123;52.412;20.970;2023-04-16T01:12:08;100626.75;;;7.40;100.00
36062;BME280;22123;52.412;20.970;2023-04-16T01:14:34;100609.16;;;7.28;100.00
36062;BME280;22123;52.412;20.970;2023-04-16T01:17:00;100521.31;;;6.76;100.00
36062;BME280;22123;52.412;20.970;2023-04-16T01:19:25;100581.38;;;7.01;100.00
36062;BME280;22123;52.412;20.970;2023-04-16T01:21:51;100545.66;;;6.83;100.00
36062;BME280;22123;52.412;20.970;2023-04-16T01:24:17;100533.28;;;6.72;100.00
36062;BME280;22123;52.412;20.970;2023-04-16T01:26:43;100598.63;;;7.17;100.00
36062;BME280;22123;52.412;20.970;2023-04-16T01:29:09;100575.31;;;6.99;100.00
36062;BME280;22123;52.412;20.970;2023-04-16T01:31:35;100580.53;;;7.01;100.00
36062;BME280;22123;52.412;20.970;2023-04-16T01:34:01;100546.63;;;6.82;100.00
36062;BME280;22123;52.412;20.970;2023-04-16T01:36:26;100617.81;;;7.22;100.00
36062;BME280;22123;52.412;20.970;2023-04-16T01:38:52;100611.34;;;7.14;100.00
36062;BME280;22123;52.412;20.970;2023-04-16T01:41:18;100553.69;;;6.83;100.00
36062;BME280;22123;52.412;20.970;2023-04-16T01:43:44;100617.66;;;7.23;100.00
36062;BME280;22123;52.412;20.970;2023-04-16T01:46:23;100603.47;;;7.13;100.00
36062;BME280;22123;52.412;20.970;2023-04-16T01:48:51;100532.31;;;6.73;100.00
36062;BME280;22123;52.412;20.970;2023-04-16T01:51:17;100567.03;;;6.92;100.00
36062;BME280;22123;52.412;20.970;2023-04-16T01:53:43;100629.03;;;7.25;100.00
36062;BME280;22123;52.412;20.970;2023-04-16T01:56:09;100560.72;;;6.84;100.00
36062;BME280;22123;52.412;20.970;2023-04-16T01:58:35;100601.50;;;7.05;100.00
36062;BME280;22123;52.412;20.970;2023-04-16T02:01:01;100537.66;;;6.73;100.00
36062;BME280;22123;52.412;20.970;2023-04-16T02:03:27;100550.16;;;6.82;100.00
36062;BME280;22123;52.412;20.970;2023-04-16T02:05:52;100604.31;;;7.04;100.00
36062;BME280;22123;52.412;20.970;2023-04-16T02:08:18;100533.88;;;6.66;100.00
36062;BME280;22123;52.412;20.970;2023-04-16T02:10:45;100590.28;;;6.92;100.00
36062;BME280;22123;52.412;20.970;2023-04-16T02:13:13;100570.34;;;6.76;100.00
36062;BME280;22123;52.412;20.970;2023-04-16T02:15:39;100621.78;;;7.08;100.00
36062;BME280;22123;52.412;20.970;2023-04-16T02:18:04;100592.69;;;6.85;100.00
36062;BME280;22123;52.412;20.970;2023-04-16T02:20:30;100595.47;;;6.93;100.00
36062;BME280;22123;52.412;20.970;2023-04-16T02:22:56;100582.97;;;6.84;100.00
36062;BME280;22123;52.412;20.970;2023-04-16T02:25:22;100606.91;;;6.95;100.00
36062;BME280;22123;52.412;20.970;2023-04-16T02:27:48;100602.53;;;6.94;100.00
36062;BME280;22123;52.412;20.970;2023-04-16T02:30:14;100585.34;;;6.87;100.00
36062;BME280;22123;52.412;20.970;2023-04-16T02:32:40;100631.50;;;7.09;100.00
36062;BME280;22123;52.412;20.970;2023-04-16T02:35:06;100610.84;;;7.01;100.00
36062;BME280;22123;52.412;20.970;2023-04-16T02:37:32;100584.94;;;6.82;100.00
36062;BME280;22123;52.412;20.970;2023-04-16T02:39:58;100599.44;;;6.89;100.00
36062;BME280;22123;52.412;20.970;2023-04-16T02:42:23;100603.13;;;6.88;100.00
36062;BME280;22123;52.412;20.970;2023-04-16T02:44:49;100615.47;;;6.99;100.00
36062;BME280;22123;52.412;20.970;2023-04-16T02:47:15;100621.38;;;7.03;100.00
36062;BME280;22123;52.412;20.970;2023-04-16T02:49:41;100605.34;;;6.93;100.00
36062;BME280;22123;52.412;20.970;2023-04-16T02:52:07;100593.38;;;6.87;100.00
36062;BME280;22123;52.412;20.970;2023-04-16T02:54:33;100609.28;;;6.99;100.00
36062;BME280;22123;52.412;20.970;2023-04-16T02:56:59;100627.88;;;7.00;100.00
36062;BME280;22123;52.412;20.970;2023-04-16T02:59:24;100552.63;;;6.56;100.00
36062;BME280;22123;52.412;20.970;2023-04-16T03:01:50;100637.00;;;7.07;100.00
36062;BME280;22123;52.412;20.970;2023-04-16T03:04:16;100558.81;;;6.56;100.00
36062;BME280;22123;52.412;20.970;2023-04-16T03:06:42;100604.53;;;6.83;100.00
36062;BME280;22123;52.412;20.970;2023-04-16T03:09:08;100628.47;;;6.94;100.00
36062;BME280;22123;52.412;20.970;2023-04-16T03:11:34;100630.41;;;6.92;100.00
36062;BME280;22123;52.412;20.970;2023-04-16T03:14:00;100647.00;;;7.05;100.00
36062;BME280;22123;52.412;20.970;2023-04-16T03:16:26;100643.78;;;7.02;100.00
36062;BME280;22123;52.412;20.970;2023-04-16T03:18:51;100665.72;;;7.15;100.00
36062;BME280;22123;52.412;20.970;2023-04-16T03:21:17;100623.66;;;6.88;100.00
36062;BME280;22123;52.412;20.970;2023-04-16T03:23:43;100647.88;;;6.96;100.00
36062;BME280;22123;52.412;20.970;2023-04-16T03:26:09;100609.06;;;6.72;100.00
36062;BME280;22123;52.412;20.970;2023-04-16T03:28:35;100646.31;;;6.93;100.00
36062;BME280;22123;52.412;20.970;2023-04-16T03:31:01;100649.72;;;6.95;100.00
36062;BME280;22123;52.412;20.970;2023-04-16T03:33:27;100677.16;;;7.07;100.00
36062;BME280;22123;52.412;20.970;2023-04-16T03:35:58;100664.75;;;7.06;100.00
36062;BME280;22123;52.412;20.970;2023-04-16T03:38:24;100623.69;;;6.78;100.00
36062;BME280;22123;52.412;20.970;2023-04-16T03:40:50;100648.72;;;6.96;100.00
36062;BME280;22123;52.412;20.970;2023-04-16T03:43:16;100689.69;;;7.17;100.00
36062;BME280;22123;52.412;20.970;2023-04-16T03:45:45;100680.25;;;7.12;100.00
36062;BME280;22123;52.412;20.970;2023-04-16T03:48:11;100645.66;;;6.91;100.00
36062;BME280;22123;52.412;20.970;2023-04-16T03:50:37;100670.97;;;7.07;100.00
36062;BME280;22123;52.412;20.970;2023-04-16T03:53:03;100669.69;;;7.11;100.00
36062;BME280;22123;52.412;20.970;2023-04-16T03:55:29;100665.63;;;7.07;100.00
36062;BME280;22123;52.412;20.970;2023-04-16T03:57:55;100621.31;;;6.75;100.00
36062;BME280;22123;52.412;20.970;2023-04-16T04:00:21;100625.78;;;6.84;100.00
36062;BME280;22123;52.412;20.970;2023-04-16T04:02:46;100687.16;;;7.15;100.00
36062;BME280;22123;52.412;20.970;2023-04-16T04:05:12;100667.28;;;7.08;100.00
36062;BME280;22123;52.412;20.970;2023-04-16T04:07:38;100649.72;;;6.95;100.00
36062;BME280;22123;52.412;20.970;2023-04-16T04:10:05;100672.66;;;7.08;100.00
36062;BME280;22123;52.412;20.970;2023-04-16T04:12:30;100695.00;;;7.26;100.00
36062;BME280;22123;52.412;20.970;2023-04-16T04:14:56;100685.03;;;7.19;100.00
36062;BME280;22123;52.412;20.970;2023-04-16T04:17:22;100673.78;;;7.05;100.00
36062;BME280;22123;52.412;20.970;2023-04-16T04:19:48;100683.78;;;7.13;100.00
36062;BME280;22123;52.412;20.970;2023-04-16T04:22:14;100682.81;;;7.14;100.00
36062;BME280;22123;52.412;20.970;2023-04-16T04:24:40;100686.31;;;7.14;100.00
36062;BME280;22123;52.412;20.970;2023-04-16T04:27:05;100683.50;;;7.16;100.00
36062;BME280;22123;52.412;20.970;2023-04-16T04:29:31;100689.13;;;7.23;100.00
36062;BME280;22123;52.412;20.970;2023-04-16T04:31:57;100679.84;;;7.17;100.00
36062;BME280;22123;52.412;20.970;2023-04-16T04:34:23;100656.19;;;7.03;100.00
36062;BME280;22123;52.412;20.970;2023-04-16T04:36:49;100709.66;;;7.32;100.00
36062;BME280;22123;52.412;20.970;2023-04-16T04:39:15;100686.59;;;7.21;100.00
36062;BME280;22123;52.412;20.970;2023-04-16T04:41:41;100698.38;;;7.28;100.00
36062;BME280;22123;52.412;20.970;2023-04-16T04:44:07;100677.84;;;7.19;100.00
36062;BME280;22123;52.412;20.970;2023-04-16T04:46:32;100692.75;;;7.31;100.00
36062;BME280;22123;52.412;20.970;2023-04-16T04:48:58;100719.06;;;7.46;100.00
36062;BME280;22123;52.412;20.970;2023-04-16T04:51:24;100690.50;;;7.27;100.00
36062;BME280;22123;52.412;20.970;2023-04-16T04:53:50;100671.50;;;7.20;100.00
36062;BME280;22123;52.412;20.970;2023-04-16T04:56:16;100685.56;;;7.32;100.00
36062;BME280;22123;52.412;20.970;2023-04-16T04:58:42;100703.56;;;7.40;100.00
36062;BME280;22123;52.412;20.970;2023-04-16T05:01:08;100711.72;;;7.48;100.00
36062;BME280;22123;52.412;20.970;2023-04-16T05:03:34;100705.69;;;7.46;100.00
36062;BME280;22123;52.412;20.970;2023-04-16T05:06:00;100712.84;;;7.55;100.00
36062;BME280;22123;52.412;20.970;2023-04-16T05:08:25;100732.91;;;7.79;100.00
36062;BME280;22123;52.412;20.970;2023-04-16T05:10:51;100722.75;;;7.82;100.00
36062;BME280;22123;52.412;20.970;2023-04-16T05:13:17;100721.59;;;7.85;100.00
36062;BME280;22123;52.412;20.970;2023-04-16T05:15:43;100735.50;;;7.98;100.00
36062;BME280;22123;52.412;20.970;2023-04-16T05:18:09;100736.91;;;8.03;100.00
36062;BME280;22123;52.412;20.970;2023-04-16T05:20:35;100727.84;;;8.04;100.00
36062;BME280;22123;52.412;20.970;2023-04-16T05:23:01;100728.00;;;8.02;100.00
36062;BME280;22123;52.412;20.970;2023-04-16T05:25:26;100759.22;;;8.21;100.00
36062;BME280;22123;52.412;20.970;2023-04-16T05:27:52;100719.81;;;8.04;100.00
36062;BME280;22123;52.412;20.970;2023-04-16T05:30:18;100732.03;;;8.16;100.00
36062;BME280;22123;52.412;20.970;2023-04-16T05:32:44;100734.56;;;8.17;100.00
36062;BME280;22123;52.412;20.970;2023-04-16T05:35:10;100737.22;;;8.17;100.00
36062;BME280;22123;52.412;20.970;2023-04-16T05:37:36;100723.16;;;8.15;100.00
36062;BME280;22123;52.412;20.970;2023-04-16T05:40:02;100728.13;;;8.28;100.00
36062;BME280;22123;52.412;20.970;2023-04-16T05:42:28;100748.09;;;8.44;100.00
36062;BME280;22123;52.412;20.970;2023-04-16T05:44:54;100761.16;;;8.57;100.00
36062;BME280;22123;52.412;20.970;2023-04-16T05:47:19;100718.31;;;8.37;100.00
36062;BME280;22123;52.412;20.970;2023-04-16T05:49:45;100748.44;;;8.59;100.00
36062;BME280;22123;52.412;20.970;2023-04-16T05:52:11;100747.06;;;8.55;100.00
36062;BME280;22123;52.412;20.970;2023-04-16T05:54:37;100748.88;;;8.54;100.00
36062;BME280;22123;52.412;20.970;2023-04-16T05:57:03;100771.91;;;8.57;100.00
36062;BME280;22123;52.412;20.970;2023-04-16T05:59:29;100753.03;;;8.48;100.00
36062;BME280;22123;52.412;20.970;2023-04-16T06:01:55;100739.59;;;8.48;100.00
36062;BME280;22123;52.412;20.970;2023-04-16T06:04:21;100747.50;;;8.50;100.00
36062;BME280;22123;52.412;20.970;2023-04-16T06:06:47;100754.72;;;8.49;100.00
36062;BME280;22123;52.412;20.970;2023-04-16T06:09:13;100779.19;;;8.64;100.00
36062;BME280;22123;52.412;20.970;2023-04-16T06:11:39;100763.03;;;8.56;100.00
36062;BME280;22123;52.412;20.970;2023-04-16T06:14:05;100754.72;;;8.49;100.00
36062;BME280;22123;52.412;20.970;2023-04-16T06:16:30;100765.28;;;8.51;100.00
36062;BME280;22123;52.412;20.970;2023-04-16T06:18:56;100759.25;;;8.49;100.00
36062;BME280;22123;52.412;20.970;2023-04-16T06:21:22;100744.00;;;8.40;100.00
36062;BME280;22123;52.412;20.970;2023-04-16T06:23:48;100770.66;;;8.51;100.00
36062;BME280;22123;52.412;20.970;2023-04-16T06:26:14;100781.66;;;8.58;100.00
36062;BME280;22123;52.412;20.970;2023-04-16T06:28:40;100762.63;;;8.41;100.00
36062;BME280;22123;52.412;20.970;2023-04-16T06:31:06;100777.03;;;8.50;100.00
36062;BME280;22123;52.412;20.970;2023-04-16T06:33:32;100775.19;;;8.50;100.00
36062;BME280;22123;52.412;20.970;2023-04-16T06:35:58;100796.47;;;8.62;100.00
36062;BME280;22123;52.412;20.970;2023-04-16T06:38:23;100776.34;;;8.48;100.00
36062;BME280;22123;52.412;20.970;2023-04-16T06:40:49;100756.72;;;8.47;100.00
36062;BME280;22123;52.412;20.970;2023-04-16T06:43:15;100765.91;;;8.63;100.00
36062;BME280;22123;52.412;20.970;2023-04-16T06:45:41;100784.75;;;8.81;100.00
36062;BME280;22123;52.412;20.970;2023-04-16T06:48:07;100763.41;;;8.79;100.00
36062;BME280;22123;52.412;20.970;2023-04-16T06:50:33;100761.56;;;8.80;100.00
36062;BME280;22123;52.412;20.970;2023-04-16T06:52:59;100756.88;;;8.82;100.00
36062;BME280;22123;52.412;20.970;2023-04-16T06:55:25;100787.66;;;9.05;100.00
36062;BME280;22123;52.412;20.970;2023-04-16T06:57:50;100807.88;;;9.18;100.00
36062;BME280;22123;52.412;20.970;2023-04-16T07:00:16;100764.84;;;8.92;100.00
36062;BME280;22123;52.412;20.970;2023-04-16T07:02:42;100777.13;;;8.94;100.00
36062;BME280;22123;52.412;20.970;2023-04-16T07:05:08;100787.66;;;9.05;100.00
36062;BME280;22123;52.412;20.970;2023-04-16T07:07:34;100792.31;;;9.03;100.00
36062;BME280;22123;52.412;20.970;2023-04-16T07:10:00;100784.88;;;8.97;100.00
36062;BME280;22123;52.412;20.970;2023-04-16T07:12:26;100786.94;;;9.03;100.00
36062;BME280;22123;52.412;20.970;2023-04-16T07:14:52;100788.13;;;9.01;100.00
36062;BME280;22123;52.412;20.970;2023-04-16T07:17:18;100757.03;;;8.80;100.00
36062;BME280;22123;52.412;20.970;2023-04-16T07:19:43;100810.03;;;9.14;100.00
36062;BME280;22123;52.412;20.970;2023-04-16T07:22:09;100779.19;;;9.00;100.00
36062;BME280;22123;52.412;20.970;2023-04-16T07:24:35;100791.31;;;9.04;100.00
36062;BME280;22123;52.412;20.970;2023-04-16T07:27:01;100794.16;;;9.03;100.00
36062;BME280;22123;52.412;20.970;2023-04-16T07:29:27;100812.81;;;9.22;100.00
36062;BME280;22123;52.412;20.970;2023-04-16T07:31:53;100783.03;;;9.16;100.00
36062;BME280;22123;52.412;20.970;2023-04-16T07:34:19;100788.84;;;9.29;100.00
36062;BME280;22123;52.412;20.970;2023-04-16T07:36:45;100811.72;;;9.33;100.00
36062;BME280;22123;52.412;20.970;2023-04-16T07:39:10;100834.03;;;9.52;100.00
36062;BME280;22123;52.412;20.970;2023-04-16T07:41:36;100802.19;;;9.39;100.00
36062;BME280;22123;52.412;20.970;2023-04-16T07:44:02;100817.19;;;9.50;100.00
36062;BME280;22123;52.412;20.970;2023-04-16T07:46:28;100828.69;;;9.60;100.00
36062;BME280;22123;52.412;20.970;2023-04-16T07:48:54;100737.28;;;9.08;100.00
36062;BME280;22123;52.412;20.970;2023-04-16T07:51:20;100829.88;;;9.57;100.00
36062;BME280;22123;52.412;20.970;2023-04-16T07:53:46;100770.97;;;9.20;100.00
36062;BME280;22123;52.412;20.970;2023-04-16T07:56:12;100814.00;;;9.46;100.00
36062;BME280;22123;52.412;20.970;2023-04-16T07:58:37;100840.66;;;9.66;100.00
36062;BME280;22123;52.412;20.970;2023-04-16T08:01:03;100818.41;;;9.55;100.00
36062;BME280;22123;52.412;20.970;2023-04-16T08:03:29;100831.25;;;9.62;100.00
36062;BME280;22123;52.412;20.970;2023-04-16T08:05:55;100833.94;;;9.62;100.00
36062;BME280;22123;52.412;20.970;2023-04-16T08:08:21;100849.78;;;9.73;100.00
36062;BME280;22123;52.412;20.970;2023-04-16T08:10:47;100856.78;;;9.84;100.00
36062;BME280;22123;52.412;20.970;2023-04-16T08:13:13;100841.72;;;9.73;100.00
36062;BME280;22123;52.412;20.970;2023-04-16T08:15:39;100843.75;;;9.71;100.00
36062;BME280;22123;52.412;20.970;2023-04-16T08:18:04;100843.25;;;9.75;100.00
36062;BME280;22123;52.412;20.970;2023-04-16T08:20:30;100846.34;;;9.81;100.00
36062;BME280;22123;52.412;20.970;2023-04-16T08:22:57;100853.69;;;9.79;100.00
36062;BME280;22123;52.412;20.970;2023-04-16T08:25:23;100874.81;;;9.91;100.00
36062;BME280;22123;52.412;20.970;2023-04-16T08:27:49;100844.72;;;9.70;100.00
36062;BME280;22123;52.412;20.970;2023-04-16T08:30:15;100874.59;;;9.85;100.00
36062;BME280;22123;52.412;20.970;2023-04-16T08:32:41;100846.59;;;9.69;100.00
36062;BME280;22123;52.412;20.970;2023-04-16T08:35:08;100851.34;;;9.75;100.00
36062;BME280;22123;52.412;20.970;2023-04-16T08:37:34;100865.31;;;9.79;100.00
36062;BME280;22123;52.412;20.970;2023-04-16T08:40:01;100880.50;;;9.88;100.00
36062;BME280;22123;52.412;20.970;2023-04-16T08:45:17;100884.19;;;9.87;100.00
36062;BME280;22123;52.412;20.970;2023-04-16T08:47:45;100874.69;;;9.75;100.00
36062;BME280;22123;52.412;20.970;2023-04-16T08:50:15;100905.84;;;9.86;100.00
36062;BME280;22123;52.412;20.970;2023-04-16T08:53:05;100903.13;;;9.78;100.00
36062;BME280;22123;52.412;20.970;2023-04-16T08:55:38;100912.38;;;9.83;100.00
36062;BME280;22123;52.412;20.970;2023-04-16T08:58:13;100904.31;;;9.83;100.00
36062;BME280;22123;52.412;20.970;2023-04-16T09:00:39;100928.81;;;9.98;100.00
36062;BME280;22123;52.412;20.970;2023-04-16T09:03:06;100920.78;;;10.06;100.00
36062;BME280;22123;52.412;20.970;2023-04-16T09:05:33;100906.88;;;10.11;100.00
36062;BME280;22123;52.412;20.970;2023-04-16T09:07:59;100926.56;;;10.38;100.00
36062;BME280;22123;52.412;20.970;2023-04-16T09:10:26;100923.72;;;10.39;100.00
36062;BME280;22123;52.412;20.970;2023-04-16T09:12:55;100919.75;;;10.52;100.00
36062;BME280;22123;52.412;20.970;2023-04-16T09:15:22;100855.78;;;10.19;100.00
36062;BME280;22123;52.412;20.970;2023-04-16T09:17:48;100904.97;;;10.56;100.00
36062;BME280;22123;52.412;20.970;2023-04-16T09:20:14;100920.03;;;10.75;100.00
36062;BME280;22123;52.412;20.970;2023-04-16T09:22:40;100931.69;;;10.92;100.00
36062;BME280;22123;52.412;20.970;2023-04-16T09:25:06;100912.13;;;10.82;100.00
36062;BME280;22123;52.412;20.970;2023-04-16T09:27:32;100927.31;;;10.99;100.00
36062;BME280;22123;52.412;20.970;2023-04-16T09:29:58;100922.47;;;11.03;100.00
36062;BME280;22123;52.412;20.970;2023-04-16T09:32:26;100935.47;;;11.16;100.00
36062;BME280;22123;52.412;20.970;2023-04-16T09:35:01;100906.16;;;11.12;100.00
36062;BME280;22123;52.412;20.970;2023-04-16T09:37:28;100923.69;;;11.17;100.00
36062;BME280;22123;52.412;20.970;2023-04-16T09:40:03;100925.53;;;11.16;100.00
36062;BME280;22123;52.412;20.970;2023-04-16T09:42:36;100914.72;;;11.08;100.00
36062;BME280;22123;52.412;20.970;2023-04-16T09:45:02;100933.81;;;11.31;100.00
36062;BME280;22123;52.412;20.970;2023-04-16T09:47:39;100942.59;;;11.49;100.00
36062;BME280;22123;52.412;20.970;2023-04-16T09:50:06;100940.78;;;11.66;100.00
36062;BME280;22123;52.412;20.970;2023-04-16T09:52:35;100954.09;;;11.84;100.00
36062;BME280;22123;52.412;20.970;2023-04-16T09:55:01;100932.50;;;11.68;100.00
36062;BME280;22123;52.412;20.970;2023-04-16T09:57:28;100922.22;;;11.63;100.00
36062;BME280;22123;52.412;20.970;2023-04-16T10:00:00;100952.22;;;11.69;100.00
36062;BME280;22123;52.412;20.970;2023-04-16T10:02:27;100945.66;;;11.79;100.00
36062;BME280;22123;52.412;20.970;2023-04-16T10:04:54;100936.91;;;11.86;100.00
36062;BME280;22123;52.412;20.970;2023-04-16T10:07:20;100937.59;;;11.96;100.00
36062;BME280;22123;52.412;20.970;2023-04-16T10:09:47;100946.31;;;12.31;100.00
36062;BME280;22123;52.412;20.970;2023-04-16T10:12:13;100919.66;;;12.28;100.00
36062;BME280;22123;52.412;20.970;2023-04-16T10:14:39;100922.69;;;12.33;100.00
36062;BME280;22123;52.412;20.970;2023-04-16T10:17:06;100957.22;;;12.62;100.00
36062;BME280;22123;52.412;20.970;2023-04-16T10:19:32;100920.00;;;12.41;100.00
36062;BME280;22123;52.412;20.970;2023-04-16T10:21:58;100940.47;;;12.67;100.00
36062;BME280;22123;52.412;20.970;2023-04-16T10:24:25;100964.06;;;12.81;100.00
36062;BME280;22123;52.412;20.970;2023-04-16T10:26:51;100956.31;;;12.70;100.00
36062;BME280;22123;52.412;20.970;2023-04-16T10:29:19;100930.41;;;12.52;100.00
36062;BME280;22123;52.412;20.970;2023-04-16T10:31:46;100935.16;;;12.42;100.00
36062;BME280;22123;52.412;20.970;2023-04-16T10:34:13;100947.63;;;12.51;100.00
36062;BME280;22123;52.412;20.970;2023-04-16T10:36:39;100956.03;;;12.65;100.00
36062;BME280;22123;52.412;20.970;2023-04-16T10:39:09;100967.13;;;12.78;100.00
36062;BME280;22123;52.412;20.970;2023-04-16T10:41:36;100938.41;;;12.77;100.00
36062;BME280;22123;52.412;20.970;2023-04-16T10:44:09;100958.97;;;12.95;100.00
36062;BME280;22123;52.412;20.970;2023-04-16T10:49:14;100972.28;;;12.96;100.00
36062;BME280;22123;52.412;20.970;2023-04-16T10:51:40;100987.00;;;12.94;100.00
36062;BME280;22123;52.412;20.970;2023-04-16T10:56:33;100957.41;;;12.52;100.00
36062;BME280;22123;52.412;20.970;2023-04-16T10:58:59;100965.84;;;12.49;100.00
36062;BME280;22123;52.412;20.970;2023-04-16T11:01:35;100989.28;;;12.65;100.00
36062;BME280;22123;52.412;20.970;2023-04-16T11:07:00;100981.50;;;12.70;100.00
36062;BME280;22123;52.412;20.970;2023-04-16T11:09:56;100986.91;;;12.70;100.00
36062;BME280;22123;52.412;20.970;2023-04-16T11:12:24;100984.03;;;12.72;100.00
36062;BME280;22123;52.412;20.970;2023-04-16T11:14:53;100942.09;;;12.37;100.00
36062;BME280;22123;52.412;20.970;2023-04-16T11:17:20;100992.66;;;12.67;100.00
36062;BME280;22123;52.412;20.970;2023-04-16T11:19:46;100994.47;;;12.75;100.00
36062;BME280;22123;52.412;20.970;2023-04-16T11:22:13;100943.88;;;12.61;100.00
36062;BME280;22123;52.412;20.970;2023-04-16T11:24:39;100964.88;;;12.90;100.00
36062;BME280;22123;52.412;20.970;2023-04-16T11:27:06;100959.75;;;13.03;100.00
36062;BME280;22123;52.412;20.970;2023-04-16T11:29:32;100997.78;;;13.33;100.00
36062;BME280;22123;52.412;20.970;2023-04-16T11:31:58;101001.84;;;13.29;100.00
36062;BME280;22123;52.412;20.970;2023-04-16T11:34:24;100937.16;;;12.96;100.00
36062;BME280;22123;52.412;20.970;2023-04-16T11:36:51;100999.16;;;13.37;100.00
36062;BME280;22123;52.412;20.970;2023-04-16T11:39:18;100973.97;;;13.37;100.00
36062;BME280;22123;52.412;20.970;2023-04-16T11:41:48;101001.19;;;13.35;100.00
36062;BME280;22123;52.412;20.970;2023-04-16T11:44:24;101006.25;;;13.30;100.00
36062;BME280;22123;52.412;20.970;2023-04-16T11:46:51;101000.44;;;13.02;100.00
36062;BME280;22123;52.412;20.970;2023-04-16T11:49:29;100973.53;;;12.77;100.00
36062;BME280;22123;52.412;20.970;2023-04-16T11:51:56;101004.00;;;13.02;100.00
36062;BME280;22123;52.412;20.970;2023-04-16T11:54:22;100975.44;;;13.08;100.00
36062;BME280;22123;52.412;20.970;2023-04-16T11:56:50;100991.41;;;13.34;100.00
36062;BME280;22123;52.412;20.970;2023-04-16T11:59:21;100995.63;;;13.37;100.00
36062;BME280;22123;52.412;20.970;2023-04-16T12:01:51;100999.91;;;13.15;100.00
36062;BME280;22123;52.412;20.970;2023-04-16T12:04:19;101006.25;;;12.91;100.00
36062;BME280;22123;52.412;20.970;2023-04-16T12:07:07;100988.34;;;12.98;100.00
36062;BME280;22123;52.412;20.970;2023-04-16T12:09:34;100997.00;;;13.16;100.00
36062;BME280;22123;52.412;20.970;2023-04-16T12:12:01;100964.00;;;12.98;100.00
36062;BME280;22123;52.412;20.970;2023-04-16T12:14:27;100994.09;;;13.26;100.00
36062;BME280;22123;52.412;20.970;2023-04-16T12:16:53;100988.09;;;13.47;100.00
36062;BME280;22123;52.412;20.970;2023-04-16T12:19:20;100994.00;;;13.51;100.00
36062;BME280;22123;52.412;20.970;2023-04-16T12:21:47;100978.63;;;13.51;100.00
36062;BME280;22123;52.412;20.970;2023-04-16T12:24:15;100970.78;;;13.56;100.00
36062;BME280;22123;52.412;20.970;2023-04-16T12:26:52;100981.00;;;13.46;100.00
36062;BME280;22123;52.412;20.970;2023-04-16T12:29:19;100985.44;;;13.39;100.00
36062;BME280;22123;52.412;20.970;2023-04-16T12:31:45;100978.63;;;13.12;100.00
36062;BME280;22123;52.412;20.970;2023-04-16T12:34:12;100983.94;;;12.97;100.00
36062;BME280;22123;52.412;20.970;2023-04-16T12:36:37;100972.97;;;12.90;100.00
36062;BME280;22123;52.412;20.970;2023-04-16T12:39:03;100954.75;;;12.92;100.00
36062;BME280;22123;52.412;20.970;2023-04-16T12:41:29;100964.63;;;13.08;100.00
36062;BME280;22123;52.412;20.970;2023-04-16T12:44:08;100959.25;;;13.00;100.00
36062;BME280;22123;52.412;20.970;2023-04-16T12:46:35;100959.59;;;13.05;100.00